Time;durP1;ratioP1;P1;durP2;ratioP2;P2;SDS_P1;SDS_P2;PMS_P1;PMS_P2;Temp;Humidity;BMP_temperature;BMP_pressure;BME280_temperature;BME280_humidity;BME280_pressure;Samples;Min_cycle;Max_cycle;Signal;HPM_P1;HPM_P2
2024/04/05 00:00:21;;;;;;;2.45;1.50;;;;;;;9.64;100.00;96350.78;1026492;28;20122;-72
2024/04/05 00:00:52;;;;;;;3.97;1.88;;;;;;;9.64;100.00;96345.53;1026240;28;20047;-72
2024/04/05 00:01:22;;;;;;;4.68;1.42;;;;;;;9.60;100.00;96347.06;1026546;28;20030;-72
2024/04/05 00:01:53;;;;;;;1.38;1.27;;;;;;;9.66;100.00;96353.97;1030642;28;20859;-72
2024/04/05 00:02:23;;;;;;;4.32;1.60;;;;;;;9.65;100.00;96357.59;1036944;28;20042;-72
2024/04/05 00:02:54;;;;;;;2.88;1.25;;;;;;;9.65;100.00;96352.34;1035321;28;20054;-71
2024/04/05 00:03:24;;;;;;;3.60;1.60;;;;;;;9.66;100.00;96348.72;1034376;28;20585;-72
2024/04/05 00:03:55;;;;;;;2.33;1.33;;;;;;;9.62;100.00;96346.81;1030379;28;20026;-73
2024/04/05 00:04:27;;;;;;;2.70;1.30;;;;;;;9.66;100.00;96353.16;1026652;28;20023;-72
2024/04/05 00:04:58;;;;;;;2.97;1.50;;;;;;;9.66;100.00;96353.97;1026521;28;20057;-72
2024/04/05 00:05:28;;;;;;;4.63;1.40;;;;;;;9.67;100.00;96355.53;1026982;28;20038;-72
2024/04/05 00:05:59;;;;;;;2.58;1.48;;;;;;;9.66;100.00;96346.09;1023846;28;20031;-72
2024/04/05 00:06:29;;;;;;;2.33;1.40;;;;;;;9.67;100.00;96347.69;1023398;29;20035;-72
2024/04/05 00:07:00;;;;;;;3.90;1.45;;;;;;;9.70;100.00;96358.72;1019212;29;20031;-72
2024/04/05 00:07:30;;;;;;;3.88;1.67;;;;;;;9.71;100.00;96352.44;1019403;29;20054;-71
2024/04/05 00:08:00;;;;;;;2.55;1.20;;;;;;;9.69;100.00;96347.41;1019239;29;20032;-71
2024/04/05 00:08:33;;;;;;;4.05;1.42;;;;;;;9.75;100.00;96345.66;1027358;28;20058;-71
2024/04/05 00:09:03;;;;;;;4.30;1.50;;;;;;;9.72;100.00;96349.56;1026597;28;20046;-71
2024/04/05 00:09:34;;;;;;;2.80;1.27;;;;;;;9.74;100.00;96352.75;1027524;28;20488;-71
2024/04/05 00:10:06;;;;;;;2.42;1.15;;;;;;;9.70;100.00;96343.78;1023710;28;20019;-73
2024/04/05 00:10:36;;;;;;;4.28;1.15;;;;;;;9.74;100.00;96359.81;1031437;28;20065;-73
2024/04/05 00:11:07;;;;;;;1.98;1.25;;;;;;;9.73;100.00;96353.00;1031383;28;20022;-72
2024/04/05 00:11:38;;;;;;;4.18;1.50;;;;;;;9.73;100.00;96351.16;1027474;28;20043;-72
2024/04/05 00:12:09;;;;;;;2.50;1.42;;;;;;;9.62;100.00;96331.06;1023451;28;20519;-71
2024/04/05 00:12:39;;;;;;;3.55;1.70;;;;;;;9.73;100.00;96356.41;1023309;29;20031;-72
2024/04/05 00:13:10;;;;;;;1.40;1.02;;;;;;;9.74;100.00;96351.97;1019568;29;20031;-71
2024/04/05 00:13:40;;;;;;;2.42;1.48;;;;;;;9.76;100.00;96349.88;1024165;28;20023;-71
2024/04/05 00:14:11;;;;;;;4.10;1.42;;;;;;;9.75;100.00;96349.06;1026005;28;20030;-72
2024/04/05 00:14:41;;;;;;;2.67;1.40;;;;;;;9.74;100.00;96349.34;1028472;28;20034;-72
2024/04/05 00:15:11;;;;;;;4.45;1.30;;;;;;;9.74;100.00;96349.34;1035133;28;20033;-72
2024/04/05 00:15:42;;;;;;;4.88;1.63;;;;;;;9.75;100.00;96350.91;1027426;28;20034;-72
2024/04/05 00:16:12;;;;;;;2.97;1.13;;;;;;;9.70;100.00;96345.63;1031177;28;20054;-72
2024/04/05 00:16:43;;;;;;;4.07;1.35;;;;;;;9.74;100.00;96354.56;1027299;28;20027;-73
2024/04/05 00:17:14;;;;;;;3.67;1.42;;;;;;;9.75;100.00;96356.94;1023470;28;20679;-72
2024/04/05 00:17:45;;;;;;;3.15;1.30;;;;;;;9.71;100.00;96344.56;1031188;28;20037;-72
2024/04/05 00:18:17;;;;;;;1.67;1.05;;;;;;;9.76;100.00;96355.09;1027569;28;20023;-72
2024/04/05 00:18:48;;;;;;;5.28;1.60;;;;;;;9.78;100.00;96360.91;1031686;28;20030;-71
2024/04/05 00:19:18;;;;;;;4.18;1.70;;;;;;;9.77;100.00;96348.84;1033990;28;20026;-72
2024/04/05 00:19:49;;;;;;;4.88;1.35;;;;;;;9.78;100.00;96353.06;1034428;28;20022;-72
2024/04/05 00:20:19;;;;;;;2.90;1.02;;;;;;;9.76;100.00;96348.06;1035327;28;20030;-72
2024/04/05 00:20:50;;;;;;;4.20;1.30;;;;;;;9.70;100.00;96343.78;1039690;28;20776;-72
2024/04/05 00:21:20;;;;;;;2.13;1.05;;;;;;;9.79;100.00;96357.25;1035274;28;20506;-72
2024/04/05 00:21:51;;;;;;;2.17;1.38;;;;;;;9.76;100.00;96350.69;1031118;28;20581;-72
2024/04/05 00:22:21;;;;;;;2.45;1.40;;;;;;;9.77;100.00;96352.25;1027184;28;20648;-72
2024/04/05 00:22:52;;;;;;;2.47;1.50;;;;;;;9.79;100.00;96352.00;1027070;28;20528;-72
2024/04/05 00:23:23;;;;;;;4.53;1.65;;;;;;;9.79;100.00;96352.81;1027388;28;20435;-72
2024/04/05 00:23:54;;;;;;;2.60;1.38;;;;;;;9.79;100.00;96352.00;1023102;29;20516;-72
2024/04/05 00:24:24;;;;;;;3.60;1.52;;;;;;;9.77;100.00;96349.63;1024778;28;20602;-71
2024/04/05 00:24:57;;;;;;;5.72;1.58;;;;;;;9.76;100.00;96355.94;1034066;28;20025;-71
2024/04/05 00:25:28;;;;;;;5.53;1.42;;;;;;;9.76;100.00;96360.34;1035269;28;20846;-72
2024/04/05 00:25:59;;;;;;;6.57;1.52;;;;;;;9.70;100.00;96350.84;1031238;28;20084;-71
2024/04/05 00:26:29;;;;;;;4.10;1.48;;;;;;;9.74;100.00;96352.75;1035329;28;20475;-71
2024/04/05 00:26:59;;;;;;;2.53;1.42;;;;;;;9.75;100.00;96350.91;1035289;28;20018;-72
2024/04/05 00:27:30;;;;;;;6.13;1.42;;;;;;;9.67;100.00;96339.81;1035297;28;20018;-71
2024/04/05 00:28:00;;;;;;;5.43;1.70;;;;;;;9.75;100.00;96349.06;1030911;28;20503;-72
2024/04/05 00:28:31;;;;;;;3.92;2.08;;;;;;;9.76;100.00;96353.31;1035457;28;20046;-72
2024/04/05 00:29:02;;;;;;;2.00;1.42;;;;;;;9.70;100.00;96333.31;1030751;28;20021;-71
2024/04/05 00:29:32;;;;;;;3.50;1.42;;;;;;;9.76;100.00;96347.25;1029553;28;20022;-72
2024/04/05 00:30:03;;;;;;;2.95;1.20;;;;;;;9.70;100.00;96338.53;1023007;29;20035;-71
2024/04/05 00:30:34;;;;;;;5.80;1.92;;;;;;;9.77;100.00;96346.22;1023027;29;20090;-71
2024/04/05 00:31:05;;;;;;;2.00;1.20;;;;;;;9.76;100.00;96342.00;1023909;28;20431;-71
2024/04/05 00:31:35;;;;;;;4.47;1.85;;;;;;;9.76;100.00;96344.63;1023512;28;20061;-71
2024/04/05 00:32:06;;;;;;;5.88;1.70;;;;;;;9.77;100.00;96343.59;1024087;28;20023;-71
2024/04/05 00:32:36;;;;;;;1.48;1.27;;;;;;;9.71;100.00;96334.09;1028189;28;20168;-71
2024/04/05 00:33:07;;;;;;;3.58;1.48;;;;;;;9.75;100.00;96340.44;1024592;28;20054;-72
2024/04/05 00:33:37;;;;;;;6.75;1.77;;;;;;;9.71;100.00;96336.72;1031565;28;20073;-71
2024/04/05 00:34:08;;;;;;;5.45;1.48;;;;;;;9.76;100.00;96347.25;1027497;28;20057;-72
2024/04/05 00:34:38;;;;;;;3.70;1.52;;;;;;;9.75;100.00;96348.28;1027466;28;20019;-72
2024/04/05 00:35:09;;;;;;;5.70;2.55;;;;;;;9.75;100.00;96343.84;1027451;28;20015;-72
2024/04/05 00:35:47;;;;;;;6.93;1.50;;;;;;;9.73;100.00;96343.31;1027306;28;20705;-71
2024/04/05 00:36:19;;;;;;;3.83;1.30;;;;;;;9.78;100.00;96345.19;1031259;28;20157;-71
2024/04/05 00:36:49;;;;;;;3.95;1.55;;;;;;;9.77;100.00;96347.03;1028317;28;20030;-71
2024/04/05 00:37:20;;;;;;;2.00;1.38;;;;;;;9.79;100.00;96352.00;1031180;28;20122;-71
2024/04/05 00:37:53;;;;;;;5.63;1.70;;;;;;;9.79;100.00;96352.00;1031260;28;20438;-72
2024/04/05 00:38:24;;;;;;;4.97;1.70;;;;;;;9.75;100.00;96341.22;1031661;28;20045;-72
2024/04/05 00:38:54;;;;;;;4.10;1.55;;;;;;;9.81;100.00;96348.13;1031658;28;20215;-71
2024/04/05 00:39:25;;;;;;;4.65;1.52;;;;;;;9.80;100.00;96343.91;1030397;28;20089;-72
2024/04/05 00:39:55;;;;;;;4.32;1.90;;;;;;;9.80;100.00;96345.75;1031027;28;20030;-72
2024/04/05 00:40:26;;;;;;;3.00;1.60;;;;;;;9.80;100.00;96343.13;1027391;28;20749;-71
2024/04/05 00:40:57;;;;;;;1.88;1.35;;;;;;;9.77;100.00;96333.13;1031293;28;20541;-71
2024/04/05 00:41:28;;;;;;;4.72;1.25;;;;;;;9.83;100.00;96343.44;1031123;28;20558;-72
2024/04/05 00:41:59;;;;;;;5.68;1.38;;;;;;;9.83;100.00;96347.88;1027158;28;20037;-71
2024/04/05 00:42:29;;;;;;;2.75;1.40;;;;;;;9.82;100.00;96341.84;1027271;28;20038;-71
2024/04/05 00:43:02;;;;;;;4.13;1.67;;;;;;;9.85;100.00;96345.81;1030522;28;20026;-71
2024/04/05 00:43:34;;;;;;;4.18;1.50;;;;;;;9.80;100.00;96332.66;1029725;28;20030;-71
2024/04/05 00:44:05;;;;;;;2.38;1.55;;;;;;;9.81;100.00;96339.47;1029768;28;20114;-71
2024/04/05 00:44:35;;;;;;;3.25;1.50;;;;;;;9.85;100.00;96345.81;1028947;28;20081;-72
2024/04/05 00:45:06;;;;;;;2.58;1.42;;;;;;;9.78;100.00;96332.09;1027306;28;20641;-72
2024/04/05 00:45:36;;;;;;;4.68;1.45;;;;;;;9.83;100.00;96334.78;1028857;28;20133;-71
2024/04/05 00:46:07;;;;;;;3.17;1.45;;;;;;;9.86;100.00;96344.78;1023266;29;20019;-71
2024/04/05 00:46:37;;;;;;;1.80;1.10;;;;;;;9.86;100.00;96339.53;1030930;28;20026;-71
2024/04/05 00:47:08;;;;;;;2.88;1.42;;;;;;;9.86;100.00;96336.94;1031233;28;20022;-71
2024/04/05 00:47:38;;;;;;;5.18;1.30;;;;;;;9.84;100.00;96333.75;1023195;29;20032;-72
2024/04/05 00:48:09;;;;;;;3.40;1.10;;;;;;;9.84;100.00;96336.38;1027045;28;20081;-71
2024/04/05 00:48:39;;;;;;;3.20;1.35;;;;;;;9.85;100.00;96336.09;1023292;28;20078;-71
2024/04/05 00:49:10;;;;;;;2.90;1.38;;;;;;;9.86;100.00;96342.16;1026665;28;20087;-72
2024/04/05 00:49:40;;;;;;;3.42;1.10;;;;;;;9.80;100.00;96333.44;1020207;29;20019;-71
2024/04/05 00:50:10;;;;;;;2.78;1.30;;;;;;;9.86;100.00;96342.97;1027124;28;20025;-71
2024/04/05 00:50:41;;;;;;;2.20;1.25;;;;;;;9.80;100.00;96324.78;1027168;28;20035;-71
2024/04/05 00:51:11;;;;;;;7.03;1.73;;;;;;;9.86;100.00;96336.94;1027056;28;20078;-71
2024/04/05 00:51:42;;;;;;;3.42;1.52;;;;;;;9.86;100.00;96334.31;1026911;28;20031;-72
2024/04/05 00:52:12;;;;;;;5.43;1.38;;;;;;;9.89;100.00;96337.22;1019223;29;20031;-71
2024/04/05 00:52:43;;;;;;;2.10;1.50;;;;;;;9.87;100.00;96335.88;1024216;28;20527;-72
2024/04/05 00:53:22;;;;;;;2.15;1.50;;;;;;;9.89;100.00;96333.78;1035217;28;20712;-71
2024/04/05 00:53:53;;;;;;;2.88;1.23;;;;;;;9.88;100.00;96334.84;1031168;28;20082;-72
2024/04/05 00:54:24;;;;;;;4.95;1.17;;;;;;;9.88;100.00;96333.00;1023104;29;20038;-71
2024/04/05 00:54:54;;;;;;;2.92;1.40;;;;;;;9.85;100.00;96330.88;1031098;28;20033;-72
2024/04/05 00:55:26;;;;;;;2.35;1.42;;;;;;;9.89;100.00;96331.16;1031221;28;20030;-71
2024/04/05 00:55:58;;;;;;;1.50;1.27;;;;;;;9.84;100.00;96328.50;1032098;28;20022;-71
2024/04/05 00:56:29;;;;;;;2.45;1.30;;;;;;;9.90;100.00;96330.94;1021568;29;20023;-71
2024/04/05 00:57:00;;;;;;;6.50;1.27;;;;;;;9.89;100.00;96325.94;1027297;28;20026;-72
2024/04/05 00:57:30;;;;;;;4.25;1.45;;;;;;;9.94;100.00;96327.84;1030803;28;20132;-71
2024/04/05 00:58:00;;;;;;;2.15;1.55;;;;;;;9.89;100.00;96328.53;1026951;28;20089;-71
2024/04/05 00:58:31;;;;;;;3.13;1.50;;;;;;;9.90;100.00;96328.31;1019341;29;20027;-72
2024/04/05 00:59:02;;;;;;;4.57;1.58;;;;;;;9.89;100.00;96332.00;1018354;29;20028;-71
2024/04/05 00:59:32;;;;;;;2.97;1.35;;;;;;;9.93;100.00;96332.28;1015434;29;20032;-71
2024/04/05 01:00:04;;;;;;;2.20;1.30;;;;;;;9.92;100.00;96328.06;1023090;28;20509;-72
2024/04/05 01:00:35;;;;;;;3.08;1.25;;;;;;;9.85;100.00;96315.13;1026963;28;20519;-73
2024/04/05 01:01:05;;;;;;;4.60;1.33;;;;;;;9.84;100.00;96320.63;1027178;28;20029;-71
2024/04/05 01:01:37;;;;;;;3.75;1.65;;;;;;;9.84;100.00;96313.56;1030914;28;20026;-72
2024/04/05 01:02:08;;;;;;;3.22;1.40;;;;;;;9.89;100.00;96326.75;1035183;28;20072;-71
2024/04/05 01:02:39;;;;;;;4.07;1.50;;;;;;;9.90;100.00;96327.53;1031359;28;20046;-71
2024/04/05 01:03:09;;;;;;;2.03;1.23;;;;;;;9.90;100.00;96320.47;1031176;28;20483;-71
2024/04/05 01:03:40;;;;;;;5.18;1.45;;;;;;;9.91;100.00;96331.72;1031191;28;20038;-71
2024/04/05 01:04:10;;;;;;;4.82;1.63;;;;;;;9.89;100.00;96320.69;1030997;28;20038;-71
2024/04/05 01:04:41;;;;;;;6.03;1.50;;;;;;;9.87;100.00;96322.78;1027111;28;20043;-72
2024/04/05 01:05:14;;;;;;;1.55;1.27;;;;;;;9.89;100.00;96318.88;1026644;28;20035;-71
2024/04/05 01:05:47;;;;;;;2.53;1.38;;;;;;;9.82;100.00;96317.44;1030944;28;20041;-72
2024/04/05 01:06:18;;;;;;;1.90;1.17;;;;;;;9.81;100.00;96314.03;1027268;28;20106;-71
2024/04/05 01:06:48;;;;;;;5.53;1.63;;;;;;;9.88;100.00;96319.09;1022922;28;20023;-72
2024/04/05 01:07:19;;;;;;;1.40;1.30;;;;;;;9.80;100.00;96306.44;1027063;28;20062;-71
2024/04/05 01:07:49;;;;;;;3.17;1.52;;;;;;;9.81;100.00;96314.03;1023072;29;20074;-71
2024/04/05 01:08:20;;;;;;;2.10;1.38;;;;;;;9.84;100.00;96324.03;1030827;28;20018;-71
2024/04/05 01:08:51;;;;;;;4.40;1.35;;;;;;;9.86;100.00;96322.00;1032943;28;20506;-71
2024/04/05 01:09:21;;;;;;;2.88;1.45;;;;;;;9.81;100.00;96316.66;1026549;28;20039;-72
2024/04/05 01:09:52;;;;;;;2.78;1.45;;;;;;;9.84;100.00;96324.03;1023002;29;20370;-71
2024/04/05 01:10:22;;;;;;;4.97;1.38;;;;;;;9.85;100.00;96319.59;1022865;29;20027;-72
2024/04/05 01:10:52;;;;;;;4.25;1.50;;;;;;;9.85;100.00;96324.84;1034932;28;20099;-71
2024/04/05 01:11:23;;;;;;;1.95;1.20;;;;;;;9.85;100.00;96324.84;1031137;28;20033;-72
2024/04/05 01:11:55;;;;;;;3.75;1.33;;;;;;;9.85;100.00;96325.63;1031107;28;20018;-72
2024/04/05 01:12:25;;;;;;;3.20;1.30;;;;;;;9.83;100.00;96313.81;1034733;28;20620;-71
2024/04/05 01:13:03;;;;;;;1.33;0.98;;;;;;;9.86;100.00;96315.97;1027493;28;20020;-71
2024/04/05 01:13:34;;;;;;;3.03;2.00;;;;;;;9.78;100.00;96311.91;1032538;28;20018;-71
2024/04/05 01:14:04;;;;;;;2.72;1.55;;;;;;;9.87;100.00;96317.53;1026840;28;20023;-71
2024/04/05 01:14:35;;;;;;;5.50;1.65;;;;;;;9.81;100.00;96313.25;1026868;28;20022;-71
2024/04/05 01:15:05;;;;;;;3.53;1.30;;;;;;;9.87;100.00;96320.94;1023280;28;20030;-72
2024/04/05 01:15:36;;;;;;;3.38;1.60;;;;;;;9.86;100.00;96319.38;1030970;28;20098;-72
2024/04/05 01:16:06;;;;;;;3.22;1.35;;;;;;;9.86;100.00;96322.00;1027238;28;20015;-71
2024/04/05 01:16:37;;;;;;;3.67;1.42;;;;;;;9.85;100.00;96319.59;1034847;28;20080;-72
2024/04/05 01:17:07;;;;;;;3.55;1.90;;;;;;;9.85;100.00;96322.22;1030488;28;20018;-71
2024/04/05 01:17:38;;;;;;;3.85;1.80;;;;;;;9.80;100.00;96315.09;1022724;28;20020;-72
2024/04/05 01:18:09;;;;;;;1.40;0.95;;;;;;;9.80;100.00;96309.84;1023016;29;20020;-72
2024/04/05 01:18:40;;;;;;;3.92;1.88;;;;;;;9.76;100.00;96306.13;1015807;29;20906;-71
2024/04/05 01:19:11;;;;;;;2.25;1.13;;;;;;;9.83;100.00;96321.69;1017562;29;20051;-69
2024/04/05 01:19:41;;;;;;;4.15;1.85;;;;;;;9.76;100.00;96314.00;1032940;28;20100;-71
2024/04/05 01:20:12;;;;;;;4.38;1.63;;;;;;;9.78;100.00;96309.28;1023004;29;20019;-71
2024/04/05 01:20:43;;;;;;;4.13;1.38;;;;;;;9.79;100.00;96310.06;1018030;29;20475;-72
2024/04/05 01:21:13;;;;;;;2.63;1.42;;;;;;;9.80;100.00;96322.16;1026911;28;20063;-72
2024/04/05 01:21:45;;;;;;;7.82;1.73;;;;;;;9.84;100.00;96320.63;1022970;28;20686;-72
2024/04/05 01:22:15;;;;;;;3.47;1.70;;;;;;;9.82;100.00;96313.00;1023157;29;20043;-71
2024/04/05 01:22:51;;;;;;;6.10;1.45;;;;;;;9.84;100.00;96320.63;1015161;29;20030;-71
2024/04/05 01:23:23;;;;;;;3.13;1.45;;;;;;;9.83;100.00;96316.44;1024465;28;20023;-71
2024/04/05 01:23:54;;;;;;;3.33;1.40;;;;;;;9.85;100.00;96319.59;1033804;28;20527;-72
2024/04/05 01:24:24;;;;;;;5.03;1.65;;;;;;;9.85;100.00;96319.59;1031057;28;20033;-72
2024/04/05 01:24:55;;;;;;;4.10;1.38;;;;;;;9.81;100.00;96308.00;1034582;28;20060;-71
2024/04/05 01:25:25;;;;;;;4.18;1.50;;;;;;;9.87;100.00;96318.31;1030903;28;20078;-72
2024/04/05 01:25:57;;;;;;;2.67;1.50;;;;;;;9.85;100.00;96325.63;1037661;28;20018;-72
2024/04/05 01:26:29;;;;;;;2.33;1.27;;;;;;;9.79;100.00;96305.66;1031289;28;20081;-72
2024/04/05 01:26:59;;;;;;;2.92;1.48;;;;;;;9.83;100.00;96314.59;1031347;28;20018;-72
2024/04/05 01:27:29;;;;;;;5.20;1.38;;;;;;;9.86;100.00;96316.75;1030669;28;20022;-71
2024/04/05 01:28:01;;;;;;;3.95;1.60;;;;;;;9.86;100.00;96322.00;1027212;28;20023;-72
2024/04/05 01:28:31;;;;;;;5.68;1.58;;;;;;;9.86;100.00;96316.75;1027141;28;20027;-72
2024/04/05 01:29:02;;;;;;;4.85;1.73;;;;;;;9.84;100.00;96310.16;1026414;28;20444;-71
2024/04/05 01:29:32;;;;;;;3.97;1.70;;;;;;;9.89;100.00;96325.94;1027131;28;20022;-72
2024/04/05 01:30:03;;;;;;;1.60;1.20;;;;;;;9.89;100.00;96316.25;1027086;28;20030;-72
2024/04/05 01:30:33;;;;;;;3.83;1.73;;;;;;;9.85;100.00;96309.09;1027105;28;20127;-72
2024/04/05 01:31:04;;;;;;;3.13;1.42;;;;;;;9.90;100.00;96317.06;1030846;28;20088;-72
2024/04/05 01:31:34;;;;;;;4.68;1.88;;;;;;;9.91;100.00;96323.88;1034994;28;20026;-71
2024/04/05 01:32:05;;;;;;;4.35;1.50;;;;;;;9.88;100.00;96311.25;1031136;28;20026;-71
2024/04/05 01:32:35;;;;;;;4.15;1.33;;;;;;;9.91;100.00;96313.38;1033603;28;20025;-71
2024/04/05 01:33:06;;;;;;;2.70;1.58;;;;;;;9.90;100.00;96315.22;1030853;28;20504;-71
2024/04/05 01:33:36;;;;;;;3.95;1.75;;;;;;;9.92;100.00;96317.56;1026920;28;20489;-72
2024/04/05 01:34:07;;;;;;;3.83;1.40;;;;;;;9.90;100.00;96317.06;1023133;28;20027;-71
2024/04/05 01:34:37;;;;;;;2.95;1.60;;;;;;;9.90;100.00;96322.28;1026994;28;20053;-71
2024/04/05 01:35:08;;;;;;;2.80;1.55;;;;;;;9.90;100.00;96314.44;1026943;28;20456;-71
2024/04/05 01:35:39;;;;;;;3.58;1.65;;;;;;;9.85;100.00;96309.09;1027028;28;20556;-71
2024/04/05 01:36:09;;;;;;;2.10;1.35;;;;;;;9.91;100.00;96324.66;1022852;29;20012;-71
2024/04/05 01:36:39;;;;;;;3.05;1.30;;;;;;;9.84;100.00;96308.31;1023131;28;20024;-71
2024/04/05 01:37:10;;;;;;;2.17;1.40;;;;;;;9.91;100.00;96316.00;1022914;29;20019;-71
2024/04/05 01:37:40;;;;;;;3.65;1.67;;;;;;;9.91;100.00;96313.38;1028036;28;20107;-71
2024/04/05 01:38:11;;;;;;;2.40;1.58;;;;;;;9.91;100.00;96314.16;1038905;28;20088;-72
2024/04/05 01:38:42;;;;;;;4.90;1.85;;;;;;;9.84;100.00;96303.06;1035297;28;20105;-71
2024/04/05 01:39:13;;;;;;;4.50;2.00;;;;;;;9.93;100.00;96326.25;1034465;28;20519;-71
2024/04/05 01:39:43;;;;;;;4.30;1.30;;;;;;;9.91;100.00;96313.38;1030972;28;20035;-72
2024/04/05 01:40:14;;;;;;;2.63;1.60;;;;;;;9.88;100.00;96306.00;1031222;28;20026;-71
2024/04/05 01:40:45;;;;;;;2.25;1.02;;;;;;;9.89;100.00;96310.19;1029670;28;20036;-71
2024/04/05 01:41:18;;;;;;;3.85;1.20;;;;;;;9.79;100.00;96289.09;1022934;29;20042;-71
2024/04/05 01:41:49;;;;;;;2.97;1.52;;;;;;;9.95;100.00;96318.94;1020915;29;20034;-71
2024/04/05 01:42:19;;;;;;;5.90;1.75;;;;;;;9.95;100.00;96322.34;1024664;28;20038;-71
2024/04/05 01:42:50;;;;;;;1.92;1.10;;;;;;;9.93;100.00;96310.53;1031439;28;20070;-71
2024/04/05 01:43:20;;;;;;;2.55;1.55;;;;;;;9.91;100.00;96313.38;1026817;28;20062;-72
2024/04/05 01:43:51;;;;;;;2.97;1.65;;;;;;;9.93;100.00;96318.41;1022780;28;20090;-71
2024/04/05 01:44:21;;;;;;;2.65;1.40;;;;;;;9.88;100.00;96308.63;1022970;29;20118;-72
2024/04/05 01:44:51;;;;;;;2.58;1.45;;;;;;;9.92;100.00;96314.97;1030746;28;20026;-71
2024/04/05 01:45:22;;;;;;;4.35;1.73;;;;;;;9.90;100.00;96315.22;1030951;28;20100;-71
2024/04/05 01:45:52;;;;;;;6.10;1.65;;;;;;;9.91;100.00;96316.00;1029286;28;20638;-72
2024/04/05 01:46:23;;;;;;;3.65;1.48;;;;;;;9.86;100.00;96305.47;1026982;28;20058;-72
2024/04/05 01:46:53;;;;;;;2.35;1.33;;;;;;;9.91;100.00;96314.16;1022865;29;20031;-71
2024/04/05 01:47:24;;;;;;;3.05;1.42;;;;;;;9.92;100.00;96317.56;1022854;28;20457;-72
2024/04/05 01:47:54;;;;;;;4.20;1.80;;;;;;;9.89;100.00;96315.44;1030019;28;20034;-70
2024/04/05 01:48:25;;;;;;;3.95;1.55;;;;;;;9.87;100.00;96317.53;1030722;28;20034;-72
2024/04/05 01:48:55;;;;;;;6.53;2.03;;;;;;;9.81;100.00;96308.00;1028222;28;20062;-71
2024/04/05 01:49:25;;;;;;;6.25;1.65;;;;;;;9.85;100.00;96319.59;1018428;29;20094;-71
2024/04/05 01:49:56;;;;;;;4.18;1.90;;;;;;;9.79;100.00;96310.06;1018800;29;20027;-72
2024/04/05 01:50:26;;;;;;;4.28;2.33;;;;;;;9.85;100.00;96320.38;1022946;28;20489;-72
2024/04/05 01:50:57;;;;;;;2.83;1.60;;;;;;;9.84;100.00;96316.19;1027099;28;20433;-70
2024/04/05 01:51:27;;;;;;;2.90;1.38;;;;;;;9.86;100.00;96321.19;1030677;28;20488;-70
2024/04/05 01:51:58;;;;;;;3.58;2.15;;;;;;;9.87;100.00;96317.53;1030907;28;20400;-72
2024/04/05 01:52:28;;;;;;;2.03;1.55;;;;;;;9.82;100.00;96309.59;1031045;28;20030;-72
2024/04/05 01:52:59;;;;;;;3.50;1.75;;;;;;;9.87;100.00;96315.69;1031047;28;20022;-73
2024/04/05 01:53:29;;;;;;;2.03;1.88;;;;;;;9.88;100.00;96319.09;1030751;28;20184;-72
2024/04/05 01:53:59;;;;;;;4.45;1.70;;;;;;;9.87;100.00;96318.31;1030802;28;20022;-72
2024/04/05 01:54:32;;;;;;;3.35;1.63;;;;;;;9.82;100.00;96313.00;1023195;28;20108;-72
2024/04/05 01:55:03;;;;;;;7.68;1.75;;;;;;;9.88;100.00;96316.50;1027233;28;20025;-70
2024/04/05 01:55:33;;;;;;;5.75;2.05;;;;;;;9.90;100.00;96317.06;1026831;28;20030;-72
2024/04/05 01:56:04;;;;;;;4.10;1.65;;;;;;;9.88;100.00;96312.03;1030761;28;20535;-74
2024/04/05 01:56:34;;;;;;;5.65;1.90;;;;;;;9.83;100.00;96305.94;1029327;28;20058;-69
2024/04/05 01:57:05;;;;;;;2.55;1.55;;;;;;;9.88;100.00;96317.28;1030780;28;20515;-72
2024/04/05 01:57:36;;;;;;;5.55;1.77;;;;;;;9.88;100.00;96308.63;1030838;28;20026;-72
2024/04/05 01:58:08;;;;;;;4.32;1.70;;;;;;;9.83;100.00;96300.72;1026995;28;20026;-71
2024/04/05 01:58:38;;;;;;;3.33;1.80;;;;;;;9.88;100.00;96306.00;1031173;28;20022;-74
2024/04/05 01:59:09;;;;;;;2.78;1.55;;;;;;;9.86;100.00;96308.09;1026270;28;20489;-72
2024/04/05 01:59:40;;;;;;;4.45;1.50;;;;;;;9.89;100.00;96310.19;1027030;28;20022;-70
2024/04/05 02:00:11;;;;;;;3.13;1.73;;;;;;;9.90;100.00;96306.56;1030247;28;20023;-72
2024/04/05 02:00:41;;;;;;;2.85;1.60;;;;;;;9.82;100.00;96292.03;1030711;28;20026;-74
2024/04/05 02:01:12;;;;;;;4.55;1.88;;;;;;;9.89;100.00;96307.56;1034845;28;20014;-72
2024/04/05 02:01:42;;;;;;;6.47;1.85;;;;;;;9.86;100.00;96301.00;1026939;28;20031;-70
2024/04/05 02:02:12;;;;;;;8.70;2.08;;;;;;;9.89;100.00;96308.41;1026812;28;20026;-70
2024/04/05 02:02:43;;;;;;;5.68;2.13;;;;;;;9.89;100.00;96305.78;1023760;28;20019;-71
2024/04/05 02:03:14;;;;;;;2.08;1.73;;;;;;;9.91;100.00;96302.91;1027003;28;20585;-72
2024/04/05 02:03:44;;;;;;;2.63;1.60;;;;;;;9.90;100.00;96302.09;1029777;28;20451;-72
2024/04/05 02:04:15;;;;;;;2.88;1.88;;;;;;;9.88;100.00;96298.13;1030700;28;20383;-71
2024/04/05 02:04:45;;;;;;;4.82;1.70;;;;;;;9.87;100.00;96301.81;1030823;28;20096;-72
2024/04/05 02:05:16;;;;;;;4.75;1.70;;;;;;;9.89;100.00;96299.72;1022984;28;20011;-72
2024/04/05 02:05:46;;;;;;;5.90;1.85;;;;;;;9.83;100.00;96295.47;1026739;28;20030;-72
2024/04/05 02:06:16;;;;;;;1.95;1.60;;;;;;;9.85;100.00;96306.50;1026662;28;20022;-72
2024/04/05 02:06:47;;;;;;;3.40;2.05;;;;;;;9.86;100.00;96305.47;1026791;28;20033;-71
2024/04/05 02:07:20;;;;;;;2.38;1.55;;;;;;;9.84;100.00;96300.47;1030837;28;20069;-71
2024/04/05 02:07:50;;;;;;;2.88;1.67;;;;;;;9.86;100.00;96305.47;1025258;28;20562;-73
2024/04/05 02:08:21;;;;;;;2.70;1.48;;;;;;;9.85;100.00;96309.09;1027058;28;20023;-72
2024/04/05 02:08:51;;;;;;;1.98;1.45;;;;;;;9.86;100.00;96300.22;1026848;28;20074;-72
2024/04/05 02:09:22;;;;;;;2.35;1.60;;;;;;;9.84;100.00;96303.06;1022389;28;20023;-71
2024/04/05 02:09:52;;;;;;;3.20;1.58;;;;;;;9.84;100.00;96297.84;1022677;28;20024;-72
2024/04/05 02:10:22;;;;;;;3.95;1.75;;;;;;;9.83;100.00;96309.38;1022846;28;20015;-69
2024/04/05 02:10:53;;;;;;;3.97;2.38;;;;;;;9.85;100.00;96303.88;1026699;28;20050;-72
2024/04/05 02:11:23;;;;;;;3.20;1.75;;;;;;;9.84;100.00;96303.06;1026669;28;20026;-72
2024/04/05 02:11:54;;;;;;;2.95;1.67;;;;;;;9.86;100.00;96300.22;1025826;28;20031;-70
2024/04/05 02:12:27;;;;;;;5.45;1.73;;;;;;;9.83;100.00;96304.13;1030819;28;20103;-69
2024/04/05 02:12:57;;;;;;;2.97;1.80;;;;;;;9.79;100.00;96292.53;1022920;29;20035;-72
2024/04/05 02:13:28;;;;;;;3.72;1.80;;;;;;;9.84;100.00;96297.84;1019600;28;20032;-72
2024/04/05 02:13:58;;;;;;;2.80;1.70;;;;;;;9.86;100.00;96289.75;1018857;29;20036;-69
2024/04/05 02:14:28;;;;;;;4.22;1.45;;;;;;;9.87;100.00;96297.34;1022868;29;20038;-70
2024/04/05 02:14:59;;;;;;;3.53;1.98;;;;;;;9.87;100.00;96293.94;1022585;29;20020;-70
2024/04/05 02:15:31;;;;;;;4.13;1.67;;;;;;;9.87;100.00;96294.72;1022815;28;20549;-72
2024/04/05 02:16:02;;;;;;;2.47;1.50;;;;;;;9.86;100.00;96292.38;1026696;28;20041;-72
2024/04/05 02:16:32;;;;;;;2.75;1.48;;;;;;;9.86;100.00;96300.22;1025042;28;20592;-70
2024/04/05 02:17:03;;;;;;;3.58;1.65;;;;;;;9.84;100.00;96292.59;1023082;28;20042;-69
2024/04/05 02:17:33;;;;;;;4.07;1.33;;;;;;;9.85;100.00;96290.75;1026879;28;20034;-70
2024/04/05 02:18:08;;;;;;;5.47;1.88;;;;;;;9.85;100.00;96288.94;1026910;28;20452;-70
2024/04/05 02:18:38;;;;;;;4.68;2.00;;;;;;;9.84;100.00;96291.81;1033371;28;20681;-70
2024/04/05 02:19:09;;;;;;;3.85;1.60;;;;;;;9.82;100.00;96299.91;1030801;28;20030;-70
2024/04/05 02:19:39;;;;;;;4.95;1.48;;;;;;;9.81;100.00;96292.28;1032663;28;20036;-69
2024/04/05 02:20:09;;;;;;;7.40;1.95;;;;;;;9.75;100.00;96288.81;1026954;28;20031;-70
2024/04/05 02:20:43;;;;;;;3.72;1.52;;;;;;;9.76;100.00;96279.09;1026688;28;20080;-69
2024/04/05 02:21:13;;;;;;;5.20;2.03;;;;;;;9.83;100.00;96298.09;1022800;29;20019;-70
2024/04/05 02:21:43;;;;;;;3.67;1.85;;;;;;;9.81;100.00;96298.31;1019665;28;20066;-70
2024/04/05 02:22:14;;;;;;;4.50;1.88;;;;;;;9.79;100.00;96296.97;1026586;28;20038;-69
2024/04/05 02:22:44;;;;;;;2.45;1.60;;;;;;;9.76;100.00;96286.97;1026263;28;20042;-71
2024/04/05 02:23:15;;;;;;;2.72;1.77;;;;;;;9.81;100.00;96295.69;1022922;28;20063;-72
2024/04/05 02:23:46;;;;;;;4.43;2.13;;;;;;;9.80;100.00;96301.19;1023019;29;20035;-71
2024/04/05 02:24:16;;;;;;;2.90;1.50;;;;;;;9.80;100.00;96290.72;1023087;28;20035;-71
2024/04/05 02:24:46;;;;;;;3.83;2.00;;;;;;;9.79;100.00;96297.78;1023056;28;20027;-72
2024/04/05 02:25:17;;;;;;;5.20;1.88;;;;;;;9.79;100.00;96294.34;1030912;28;20022;-71